Colorado Springs Aviation Decision Support Information(Rapid Prototype)

Last Page Refresh(page does not auto refresh):
000
FTUS45 KPUB 172340
TAFCOS
TAF
KCOS 172340Z 1800/1824 VRB06KT P6SM VCSH SCT020 OVC040
      TEMPO 1801/1803 5SM -SHSN SCT010 OVC020
     FM180500 35006KT P6SM SCT030 BKN060
     FM181600 14008KT P6SM BKN030
     FM182000 16010KT P6SM SCT030 SCT090=

Please provide any comments or suggestion to the web master email addresse below.


USA.gov is the U.S. government's official web portal to all federal, state and local government web resources and services.